Time;durP1;ratioP1;P1;durP2;ratioP2;P2;SDS_P1;SDS_P2;PMS_P1;PMS_P2;Temp;Humidity;BMP_temperature;BMP_pressure;BME280_temperature;BME280_humidity;BME280_pressure;Samples;Min_cycle;Max_cycle;Signal;HPM_P1;HPM_P2
2021/03/31 00:02:10;;;;;;;13.10;10.27;;;8.00;99.90;;;6.10;100.00;101491.38;4966063;28;101137;-61
2021/03/31 00:05:22;;;;;;;13.10;10.77;;;7.90;99.90;;;6.09;100.00;101488.81;4980365;28;101390;-60
2021/03/31 00:08:33;;;;;;;14.93;11.57;;;7.90;99.90;;;5.81;100.00;101489.72;4983783;28;100111;-60
2021/03/31 00:11:45;;;;;;;12.57;10.00;;;7.90;99.90;;;6.13;100.00;101482.38;4967226;28;100471;-60
2021/03/31 00:14:58;;;;;;;11.83;10.40;;;7.80;99.90;;;5.95;100.00;101478.25;4966469;28;101565;-61
2021/03/31 00:18:09;;;;;;;16.37;12.13;;;7.80;99.90;;;6.05;100.00;101480.22;4966114;28;100506;-61
2021/03/31 00:21:26;;;;;;;12.60;11.30;;;7.70;99.90;;;5.83;100.00;101479.00;4981963;28;100379;-60
2021/03/31 00:24:37;;;;;;;13.63;11.40;;;7.70;99.90;;;5.72;100.00;101475.22;4985206;28;100201;-60
2021/03/31 00:27:48;;;;;;;12.20;10.20;;;7.70;99.90;;;5.92;100.00;101474.00;4984627;28;101347;-61
2021/03/31 00:31:01;;;;;;;16.33;11.70;;;7.60;99.90;;;5.64;100.00;101476.69;4986253;28;100709;-61
2021/03/31 00:34:13;;;;;;;12.47;10.60;;;7.60;99.90;;;5.39;100.00;101470.28;4966116;28;100345;-60
2021/03/31 00:37:24;;;;;;;13.93;10.27;;;7.50;99.90;;;5.29;100.00;101470.94;4972904;28;100244;-59
2021/03/31 00:41:04;;;;;;;16.07;10.67;;;7.50;99.90;;;5.67;100.00;101468.53;4984026;28;100732;-60
2021/03/31 00:47:33;;;;;;;13.00;10.20;;;7.40;99.90;;;5.53;100.00;101460.59;4985549;28;100341;-60
2021/03/31 00:50:51;;;;;;;13.30;10.53;;;7.30;99.90;;;5.47;100.00;101455.66;4985650;27;101644;-60
2021/03/31 00:57:41;;;;;;;13.77;10.27;;;7.30;99.90;;;5.39;100.00;101449.03;4967103;28;100768;-60
2021/03/31 01:00:53;;;;;;;14.50;11.17;;;7.20;99.90;;;5.00;100.00;101452.38;4985464;28;100222;-61
2021/03/31 01:04:06;;;;;;;16.63;10.23;;;7.10;99.90;;;5.27;100.00;101441.84;4972771;28;100205;-59
2021/03/31 01:07:29;;;;;;;13.80;10.87;;;7.10;99.90;;;5.01;100.00;101445.25;4971980;28;101035;-61
2021/03/31 01:10:43;;;;;;;13.27;10.40;;;7.00;99.90;;;4.92;100.00;101435.22;4983284;28;100403;-60
2021/03/31 01:14:32;;;;;;;12.63;10.60;;;7.00;99.90;;;4.65;100.00;101438.59;4984475;28;100291;-60
2021/03/31 01:17:51;;;;;;;14.47;10.63;;;7.00;99.90;;;4.68;100.00;101438.44;4882959;28;100273;-59
2021/03/31 01:21:29;;;;;;;17.27;10.63;;;6.90;99.90;;;4.71;100.00;101434.72;4874848;28;100768;-60
2021/03/31 01:24:50;;;;;;;12.00;9.60;;;6.80;99.90;;;4.73;100.00;101434.63;4944105;28;100267;-61
2021/03/31 01:28:16;;;;;;;13.97;10.97;;;6.80;99.90;;;4.77;100.00;101436.16;4966334;28;99997;-61
2021/03/31 01:31:38;;;;;;;15.37;10.53;;;6.70;99.90;;;4.91;100.00;101436.16;4971560;28;100138;-61
2021/03/31 01:35:27;;;;;;;15.30;9.90;;;6.70;99.90;;;4.87;100.00;101438.16;4984271;27;101340;-60
2021/03/31 01:38:42;;;;;;;14.03;9.03;;;6.60;99.90;;;4.60;100.00;101435.34;4966677;27;100656;-61
2021/03/31 01:41:55;;;;;;;17.37;9.97;;;6.60;99.90;;;4.48;100.00;101437.88;4964467;28;100162;-61
2021/03/31 01:45:11;;;;;;;14.47;9.93;;;6.50;99.90;;;4.46;100.00;101439.78;4965074;28;100162;-59
2021/03/31 01:48:26;;;;;;;15.33;9.47;;;6.50;99.90;;;4.32;100.00;101433.53;4964703;28;100925;-61
2021/03/31 01:51:52;;;;;;;15.40;10.10;;;6.40;99.90;;;4.19;100.00;101434.31;4965741;28;101129;-61
2021/03/31 01:58:37;;;;;;;15.13;10.10;;;6.30;99.90;;;4.61;100.00;101429.13;4963872;28;100679;-59
2021/03/31 02:01:49;;;;;;;15.13;10.80;;;6.20;99.90;;;4.42;100.00;101425.88;4964798;28;101620;-60
2021/03/31 02:05:07;;;;;;;12.73;10.53;;;6.20;99.90;;;4.66;100.00;101426.19;4965066;28;100477;-60
2021/03/31 02:08:30;;;;;;;11.53;9.73;;;6.20;99.90;;;4.55;100.00;101416.25;4965639;28;100499;-59
2021/03/31 02:11:43;;;;;;;15.73;10.50;;;6.20;99.90;;;4.43;100.00;101424.94;4982243;28;100244;-59
2021/03/31 02:14:56;;;;;;;15.97;10.77;;;6.20;99.90;;;4.26;100.00;101423.25;4983615;27;100932;-59
2021/03/31 02:18:14;;;;;;;15.93;11.57;;;6.10;99.90;;;3.97;100.00;101417.00;4984640;27;100601;-60
2021/03/31 02:24:44;;;;;;;14.53;11.00;;;6.00;99.90;;;3.98;100.00;101417.88;4965307;28;100248;-60
2021/03/31 02:27:57;;;;;;;14.07;10.80;;;5.90;99.90;;;3.91;100.00;101417.38;4945124;28;103499;-59
2021/03/31 02:31:09;;;;;;;14.00;10.97;;;5.90;99.90;;;3.80;100.00;101417.16;4980592;28;101044;-60
2021/03/31 02:34:22;;;;;;;15.17;11.50;;;5.90;99.90;;;3.80;100.00;101418.94;4988461;28;100421;-60
2021/03/31 02:37:51;;;;;;;19.43;12.87;;;5.90;99.90;;;3.75;100.00;101416.53;4986953;28;100430;-60
2021/03/31 02:41:04;;;;;;;13.30;11.23;;;5.90;99.90;;;4.06;100.00;101413.00;4968891;28;101973;-58
2021/03/31 02:44:18;;;;;;;17.60;10.47;;;5.80;99.90;;;4.16;100.00;101413.31;4967976;28;100513;-61
2021/03/31 02:47:33;;;;;;;18.27;11.93;;;5.80;99.90;;;3.89;100.00;101421.06;4967490;28;100688;-59
2021/03/31 02:50:48;;;;;;;14.97;12.00;;;5.80;99.90;;;3.50;100.00;101417.06;4980845;28;100451;-60
2021/03/31 02:54:00;;;;;;;15.30;11.83;;;5.80;99.90;;;3.43;100.00;101423.66;4984738;28;103272;-61
2021/03/31 02:57:12;;;;;;;17.30;12.37;;;5.70;99.90;;;3.49;100.00;101425.09;4978266;28;101359;-59
2021/03/31 03:00:25;;;;;;;17.37;11.93;;;5.60;99.90;;;3.47;100.00;101424.31;4967611;28;100090;-59
2021/03/31 03:03:38;;;;;;;18.10;12.67;;;5.50;99.90;;;3.37;100.00;101421.31;4967657;28;100636;-61
2021/03/31 03:06:49;;;;;;;16.63;12.80;;;5.40;99.90;;;3.31;100.00;101412.88;4966653;28;100528;-59
2021/03/31 03:10:01;;;;;;;17.80;12.93;;;5.40;99.90;;;3.37;100.00;101409.88;4967257;28;101271;-59
2021/03/31 03:13:14;;;;;;;16.00;11.97;;;5.30;99.90;;;3.39;100.00;101415.94;4972312;28;100447;-62
2021/03/31 03:16:29;;;;;;;15.00;12.03;;;5.30;99.90;;;3.33;100.00;101414.53;4987554;28;100076;-60
2021/03/31 03:19:41;;;;;;;19.63;14.17;;;5.30;99.90;;;3.20;100.00;101410.84;4985503;28;100947;-61
2021/03/31 03:22:53;;;;;;;19.43;13.53;;;5.20;99.90;;;3.04;100.00;101409.94;4984189;28;102867;-60
2021/03/31 03:26:11;;;;;;;17.63;13.37;;;5.20;99.90;;;3.09;100.00;101407.94;4967397;28;100264;-58
2021/03/31 03:32:41;;;;;;;18.03;13.20;;;5.10;99.90;;;2.87;100.00;101410.84;4966473;28;100792;-59
2021/03/31 03:36:03;;;;;;;17.83;13.00;;;5.00;99.90;;;2.97;100.00;101398.84;4966577;28;100490;-62
2021/03/31 03:39:16;;;;;;;17.90;13.17;;;4.90;99.90;;;2.85;100.00;101408.28;4966146;28;100111;-60
2021/03/31 03:42:33;;;;;;;17.27;12.60;;;4.90;99.90;;;2.85;100.00;101395.06;4967351;27;100944;-60
2021/03/31 03:49:31;;;;;;;18.17;13.33;;;4.80;99.90;;;3.06;100.00;101395.72;4947265;28;100849;-59
2021/03/31 03:52:57;;;;;;;18.53;13.93;;;4.80;99.90;;;3.07;100.00;101399.22;4978156;28;100056;-59
2021/03/31 03:56:20;;;;;;;21.23;14.10;;;4.80;99.90;;;2.82;100.00;101399.69;4966341;28;99971;-60
2021/03/31 04:03:22;;;;;;;19.03;13.90;;;4.80;99.90;;;2.69;100.00;101402.13;4967558;28;100605;-59
2021/03/31 04:06:52;;;;;;;20.30;13.33;;;4.70;99.90;;;2.46;100.00;101398.03;4968900;28;101349;-59
2021/03/31 04:10:05;;;;;;;20.63;14.53;;;4.70;99.90;;;2.48;100.00;101390.88;4964418;28;100550;-60
2021/03/31 04:13:18;;;;;;;18.80;13.47;;;4.60;99.90;;;2.61;100.00;101393.72;4968304;28;100598;-60
2021/03/31 04:16:32;;;;;;;19.50;12.60;;;4.50;99.90;;;2.60;100.00;101399.94;4967331;28;102884;-61
2021/03/31 04:19:46;;;;;;;16.87;13.17;;;4.50;99.90;;;2.58;100.00;101393.06;4986381;28;100108;-59
2021/03/31 04:23:18;;;;;;;23.80;15.33;;;4.50;99.90;;;2.41;100.00;101392.13;4969809;28;100397;-59
2021/03/31 04:26:42;;;;;;;22.37;14.53;;;4.50;99.90;;;2.34;100.00;101393.41;4932768;28;101278;-60
2021/03/31 04:29:55;;;;;;;18.83;13.97;;;4.40;99.90;;;2.39;100.00;101399.28;4982620;28;102933;-61
2021/03/31 04:33:08;;;;;;;26.93;15.33;;;4.40;99.90;;;2.45;100.00;101395.47;4966768;27;100205;-61
2021/03/31 04:36:20;;;;;;;24.63;16.40;;;4.30;99.90;;;2.34;100.00;101389.91;4965758;28;100432;-60
2021/03/31 04:39:33;;;;;;;20.87;14.90;;;4.30;99.90;;;2.77;100.00;101394.63;4965667;28;100916;-61
2021/03/31 04:42:44;;;;;;;24.93;16.87;;;4.30;99.90;;;2.55;100.00;101395.84;4964051;28;102061;-61
2021/03/31 04:45:55;;;;;;;19.00;14.20;;;4.30;99.90;;;2.56;100.00;101390.47;4965956;28;100410;-60
2021/03/31 04:52:12;;;;;;;18.90;14.57;;;4.30;99.90;;;2.60;100.00;101385.91;4983000;27;100465;-60
2021/03/31 04:55:25;;;;;;;19.00;13.83;;;4.30;99.90;;;2.88;100.00;101381.69;4965567;28;101243;-61
2021/03/31 04:58:45;;;;;;;20.27;13.73;;;4.30;99.90;;;2.61;100.00;101383.16;4974336;28;100258;-61
2021/03/31 05:01:56;;;;;;;23.47;15.33;;;4.40;99.90;;;2.45;100.00;101384.91;4984538;28;100296;-60
2021/03/31 05:05:19;;;;;;;19.10;14.40;;;4.40;99.90;;;2.27;100.00;101384.06;4984621;28;101325;-60
2021/03/31 05:08:30;;;;;;;19.97;15.67;;;4.40;99.90;;;2.44;100.00;101380.56;4984827;27;101021;-61
2021/03/31 05:11:43;;;;;;;19.53;13.83;;;4.40;99.90;;;2.52;100.00;101381.84;4983508;28;100508;-60
2021/03/31 05:14:56;;;;;;;20.90;16.13;;;4.40;99.90;;;2.74;100.00;101384.22;4984677;28;100743;-60
2021/03/31 05:18:07;;;;;;;20.63;15.27;;;4.40;99.90;;;2.53;100.00;101385.34;4965932;28;100764;-60
2021/03/31 05:21:18;;;;;;;20.30;14.23;;;4.50;99.90;;;2.53;100.00;101382.72;4965526;28;101141;-60
2021/03/31 05:24:31;;;;;;;20.10;13.80;;;4.50;99.90;;;2.81;100.00;101384.75;4965849;28;100270;-60
2021/03/31 05:31:53;;;;;;;21.97;14.67;;;4.70;99.90;;;3.78;100.00;101370.50;4900911;28;100562;-60
2021/03/31 05:35:16;;;;;;;26.43;14.67;;;4.90;99.90;;;3.72;100.00;101371.69;4892660;27;100745;-60
2021/03/31 05:38:27;;;;;;;20.53;14.67;;;5.10;99.90;;;3.76;100.00;101365.31;4967381;27;100317;-60
2021/03/31 05:41:47;;;;;;;22.90;16.73;;;5.20;99.90;;;3.71;100.00;101358.59;4972159;27;100176;-60
2021/03/31 05:45:01;;;;;;;25.77;18.27;;;5.40;99.90;;;3.94;100.00;101356.31;4975985;28;100761;-61
2021/03/31 05:48:13;;;;;;;28.73;18.17;;;5.60;99.90;;;4.46;100.00;101352.31;4970076;28;100639;-61
2021/03/31 05:51:26;;;;;;;38.77;17.57;;;5.70;99.90;;;4.63;100.00;101352.16;4962917;28;100159;-60
2021/03/31 05:54:37;;;;;;;24.77;16.50;;;6.10;99.90;;;4.82;100.00;101341.28;4978369;28;100524;-61
2021/03/31 05:57:50;;;;;;;27.17;15.83;;;6.30;99.90;;;5.10;100.00;101343.88;4961534;28;101972;-60
2021/03/31 06:00:55;;;;;;;24.47;15.63;;;6.60;99.90;;;5.66;100.00;101340.22;4980875;28;100888;-62
2021/03/31 06:04:06;;;;;;;22.53;14.30;;;6.90;99.90;;;6.13;100.00;101337.06;4966210;28;101393;-61
2021/03/31 06:07:17;;;;;;;29.87;15.13;;;7.10;99.90;;;6.70;100.00;101338.44;4975132;28;100352;-60
2021/03/31 06:10:54;;;;;;;21.73;14.33;;;7.50;99.90;;;7.04;100.00;101340.44;4979356;27;101251;-60
2021/03/31 06:14:23;;;;;;;19.37;14.27;;;7.90;99.90;;;7.79;100.00;101334.94;4872924;28;100619;-61
2021/03/31 06:17:53;;;;;;;18.53;13.53;;;8.30;99.90;;;8.06;100.00;101329.31;4889144;28;100390;-60
2021/03/31 06:21:33;;;;;;;18.93;14.40;;;8.70;99.90;;;8.29;100.00;101331.06;4974912;28;100261;-60
2021/03/31 06:24:46;;;;;;;19.80;14.23;;;9.30;99.90;;;8.68;100.00;101328.97;4891651;28;100779;-62
2021/03/31 06:28:03;;;;;;;21.73;14.43;;;9.70;99.90;;;8.34;100.00;101334.28;4895005;28;100559;-61
2021/03/31 06:31:29;;;;;;;20.83;13.07;;;10.10;99.90;;;8.73;100.00;101322.31;4979080;28;100309;-62
2021/03/31 06:34:43;;;;;;;22.57;15.20;;;10.50;99.90;;;8.83;100.00;101331.28;4975478;28;100122;-62
2021/03/31 06:38:15;;;;;;;23.90;15.67;;;10.90;99.90;;;9.01;100.00;101326.31;4979060;28;101460;-61
2021/03/31 06:41:38;;;;;;;25.23;14.97;;;11.30;99.90;;;9.38;100.00;101321.53;4979526;28;101296;-61
2021/03/31 06:45:13;;;;;;;20.73;13.70;;;11.60;99.90;;;9.95;100.00;101323.84;4979099;28;100456;-60
2021/03/31 06:48:27;;;;;;;17.87;13.13;;;12.00;99.90;;;10.46;100.00;101328.44;4956756;28;100491;-61
2021/03/31 06:51:46;;;;;;;15.47;13.13;;;12.50;98.80;;;10.71;100.00;101313.78;4972945;28;101475;-62
2021/03/31 06:55:10;;;;;;;19.17;13.30;;;12.90;97.20;;;10.86;100.00;101316.97;4977897;28;101238;-61
2021/03/31 06:58:23;;;;;;;16.73;13.40;;;13.30;95.60;;;11.31;100.00;101312.84;4968937;28;100284;-61
2021/03/31 07:01:55;;;;;;;18.40;13.83;;;13.70;94.20;;;11.34;100.00;101303.69;4979436;28;100393;-62
2021/03/31 07:05:07;;;;;;;14.67;12.63;;;14.10;93.00;;;11.86;100.00;101302.50;4970705;28;100509;-61
2021/03/31 07:08:30;;;;;;;17.27;14.67;;;14.50;91.30;;;11.95;100.00;101301.66;4974157;28;100232;-60
2021/03/31 07:12:07;;;;;;;17.70;14.05;;;14.90;89.20;;;11.92;100.00;101290.34;4974252;28;100126;-63
2021/03/31 07:15:19;;;;;;;21.20;13.77;;;15.30;85.30;;;11.95;100.00;101287.41;4979601;27;100122;-62
2021/03/31 07:18:31;;;;;;;18.08;12.85;;;15.60;81.50;;;12.97;100.00;101283.00;4982707;28;100558;-61
2021/03/31 07:21:42;;;;;;;16.67;13.05;;;15.80;79.90;;;13.11;100.00;101283.31;4983514;28;100337;-62
2021/03/31 07:24:55;;;;;;;18.02;12.73;;;16.20;79.00;;;13.66;100.00;101288.63;4979522;28;100079;-61
2021/03/31 07:28:07;;;;;;;17.15;12.50;;;16.70;76.60;;;13.45;100.00;101288.09;4982925;28;100727;-62
2021/03/31 07:31:21;;;;;;;16.70;11.90;;;17.10;73.00;;;14.31;100.00;101281.94;4976984;28;100653;-61
2021/03/31 07:34:50;;;;;;;19.65;12.82;;;17.50;69.70;;;14.49;100.00;101286.44;4976441;28;100335;-61
2021/03/31 07:38:03;;;;;;;19.42;12.35;;;18.00;64.60;;;14.64;100.00;101285.69;4952688;28;100478;-62
2021/03/31 07:41:17;;;;;;;15.55;10.90;;;18.30;63.30;;;14.89;100.00;101283.97;4976840;28;100894;-62
2021/03/31 07:44:50;;;;;;;17.38;13.30;;;18.70;60.60;;;15.52;100.00;101283.47;4983093;28;100153;-62
2021/03/31 07:48:15;;;;;;;16.63;12.07;;;19.20;58.40;;;15.20;100.00;101280.72;4978854;28;101073;-61
2021/03/31 07:55:00;;;;;;;17.88;11.73;;;19.80;53.40;;;16.47;100.00;101271.16;4976672;28;101455;-62
2021/03/31 07:58:40;;;;;;;16.48;11.63;;;19.90;53.00;;;15.86;100.00;101260.94;4980828;28;101005;-61
2021/03/31 08:02:00;;;;;;;17.40;11.07;;;20.20;51.70;;;16.53;100.00;101262.38;4973794;28;100969;-62
2021/03/31 08:05:24;;;;;;;15.15;11.65;;;20.40;51.10;;;17.18;100.00;101264.84;4977231;28;100048;-62
2021/03/31 08:08:42;;;;;;;15.15;11.90;;;20.80;52.00;;;17.44;100.00;101269.91;4982943;28;100116;-61
2021/03/31 08:12:20;;;;;;;16.17;12.45;;;21.20;50.10;;;17.20;100.00;101270.88;4982168;28;99813;-64
2021/03/31 08:15:54;;;;;;;16.83;11.82;;;21.60;50.20;;;17.06;100.00;101267.06;4896131;28;100259;-61
2021/03/31 08:19:06;;;;;;;14.32;11.57;;;22.10;49.60;;;18.01;100.00;101261.38;4969247;28;100979;-62
2021/03/31 08:22:26;;;;;;;12.40;10.82;;;22.50;48.50;;;17.63;100.00;101266.78;4983389;28;99982;-62
2021/03/31 08:25:56;;;;;;;13.38;10.75;;;22.90;46.70;;;17.79;100.00;101266.66;4952345;28;101134;-61
2021/03/31 08:29:07;;;;;;;17.20;11.32;;;23.00;42.80;;;18.59;100.00;101274.22;4949160;28;100173;-61
2021/03/31 08:32:24;;;;;;;15.65;10.75;;;23.00;43.80;;;18.19;100.00;101268.13;4979688;28;100331;-61
2021/03/31 08:35:39;;;;;;;13.43;10.88;;;23.20;43.80;;;18.82;100.00;101253.25;4984456;28;99768;-63
2021/03/31 08:38:50;;;;;;;16.50;11.30;;;23.40;44.20;;;18.72;100.00;101246.44;4981708;28;100671;-62
2021/03/31 08:42:05;;;;;;;14.48;10.73;;;23.70;44.20;;;19.13;100.00;101244.91;4982915;28;100033;-61
2021/03/31 08:45:17;;;;;;;14.40;11.07;;;24.00;43.30;;;18.66;100.00;101237.22;4978456;28;100047;-60
2021/03/31 08:48:35;;;;;;;17.48;11.60;;;24.20;41.30;;;19.45;100.00;101227.28;4978203;28;100077;-61
2021/03/31 08:51:49;;;;;;;13.75;11.10;;;24.40;40.40;;;19.18;95.80;101231.56;4974835;28;99919;-62
2021/03/31 08:55:01;;;;;;;15.90;12.18;;;24.60;39.20;;;19.41;100.00;101234.13;4976409;28;99863;-63
2021/03/31 08:58:42;;;;;;;15.30;10.50;;;24.80;38.50;;;19.70;100.00;101228.59;4982130;28;100125;-62
2021/03/31 09:01:53;;;;;;;14.77;11.68;;;25.10;39.40;;;19.06;99.29;101226.84;4911251;28;100352;-62
2021/03/31 09:05:09;;;;;;;19.73;11.00;;;25.40;37.40;;;19.33;100.00;101228.81;4972963;28;100032;-63
2021/03/31 09:08:31;;;;;;;11.40;9.35;;;25.40;37.20;;;19.78;99.59;101232.25;4974988;28;100475;-64
2021/03/31 09:15:39;;;;;;;18.00;12.32;;;25.70;34.40;;;18.51;84.85;101220.06;4905235;28;99848;-62
2021/03/31 09:19:06;;;;;;;17.55;12.43;;;25.60;33.00;;;18.45;89.48;101223.50;4960412;28;100832;-63
2021/03/31 09:22:24;;;;;;;17.13;12.13;;;25.20;32.30;;;18.97;82.95;101216.13;4968607;28;100168;-62
2021/03/31 09:25:37;;;;;;;17.02;12.52;;;24.90;33.60;;;19.57;79.50;101212.19;4979523;28;99961;-62
2021/03/31 09:28:48;;;;;;;15.30;12.88;;;24.70;33.70;;;19.53;82.26;101204.66;4978327;28;99931;-62
2021/03/31 09:32:00;;;;;;;15.80;11.77;;;24.70;34.00;;;19.96;71.68;101192.69;4980860;28;101294;-63
2021/03/31 09:35:13;;;;;;;16.45;12.60;;;24.70;33.60;;;20.07;73.90;101194.84;4977331;28;100296;-62
2021/03/31 09:39:03;;;;;;;23.45;19.63;;;24.80;34.20;;;20.73;76.13;101187.13;4975438;27;99897;-62
2021/03/31 09:42:15;;;;;;;65.15;54.47;;;25.10;34.20;;;20.88;74.68;101183.41;4898396;28;100200;-62
2021/03/31 09:45:27;;;;;;;20.02;13.85;;;25.50;33.70;;;19.90;74.90;101179.06;4899189;28;100421;-63
2021/03/31 09:48:40;;;;;;;15.40;11.50;;;25.90;32.30;;;19.94;67.61;101177.63;4977709;28;100009;-63
2021/03/31 09:51:51;;;;;;;16.75;12.13;;;26.00;31.20;;;20.23;64.18;101174.69;4977295;28;99965;-61
2021/03/31 09:55:04;;;;;;;14.10;10.85;;;26.20;31.40;;;21.33;58.41;101171.00;4987148;28;99957;-62
2021/03/31 09:58:17;;;;;;;14.55;11.07;;;26.60;31.30;;;21.37;54.04;101172.25;4979582;28;100506;-62
2021/03/31 10:01:29;;;;;;;12.55;10.95;;;27.00;30.20;;;21.44;52.99;101168.50;4974070;28;99866;-63
2021/03/31 10:04:41;;;;;;;12.88;10.52;;;27.50;29.70;;;21.39;46.48;101170.97;4977645;28;100005;-62
2021/03/31 10:08:02;;;;;;;13.35;10.35;;;27.80;28.60;;;20.71;49.01;101155.72;4981576;28;100090;-62
2021/03/31 10:11:16;;;;;;;15.80;11.07;;;27.70;27.30;;;20.89;50.19;101152.44;4978221;28;100471;-60
2021/03/31 10:14:53;;;;;;;13.18;10.02;;;27.50;27.30;;;21.44;48.53;101148.59;4982003;28;100661;-62
2021/03/31 10:18:04;;;;;;;13.30;10.50;;;27.30;27.90;;;21.71;47.37;101150.28;4977550;28;99918;-61
2021/03/31 10:21:43;;;;;;;11.15;9.07;;;27.10;28.30;;;22.28;47.48;101134.28;4981362;28;100320;-62
2021/03/31 10:25:01;;;;;;;12.50;9.93;;;27.30;28.80;;;23.10;46.35;101131.63;4900116;28;100184;-61
2021/03/31 10:28:42;;;;;;;13.48;10.40;;;27.70;28.60;;;22.02;47.68;101129.72;4974228;28;100366;-62
2021/03/31 10:32:03;;;;;;;16.50;10.20;;;28.30;28.00;;;22.74;47.05;101115.00;4951116;28;99811;-61
2021/03/31 10:35:15;;;;;;;13.63;10.27;;;28.50;28.10;;;23.60;46.24;101115.31;4975090;28;99881;-62
2021/03/31 10:38:37;;;;;;;12.57;9.93;;;29.00;28.30;;;22.66;45.42;101118.81;4976494;28;99978;-63
2021/03/31 10:52:33;;;;;;;13.20;9.63;;;31.30;27.80;;;23.63;45.53;101103.91;4902476;28;101271;-60
2021/03/31 10:55:45;;;;;;;11.70;9.77;;;31.80;27.20;;;23.31;48.95;101103.13;4975893;28;100093;-61
2021/03/31 11:02:46;;;;;;;12.27;9.48;;;32.20;26.70;;;23.37;43.75;101095.94;4985786;28;100230;-62
2021/03/31 11:05:59;;;;;;;10.65;9.43;;;32.40;25.80;;;23.78;45.49;101092.63;4895568;28;99949;-62
2021/03/31 11:12:27;;;;;;;11.70;8.75;;;32.70;24.70;;;23.22;38.18;101086.19;4980612;28;100166;-62
2021/03/31 11:15:39;;;;;;;9.55;8.43;;;32.60;24.30;;;23.20;40.25;101085.56;4985743;28;99832;-61
2021/03/31 11:25:52;;;;;;;11.13;9.05;;;32.40;24.50;;;23.83;39.51;101068.22;4968541;28;99652;-62
2021/03/31 11:29:03;;;;;;;10.15;7.93;;;32.50;24.30;;;23.59;36.32;101070.75;4984988;28;100212;-62
2021/03/31 11:32:14;;;;;;;10.45;8.60;;;32.80;23.70;;;23.24;40.40;101067.66;4983218;28;100827;-62
2021/03/31 11:35:26;;;;;;;10.23;8.27;;;32.40;23.40;;;23.21;38.14;101065.38;4983378;28;100196;-62
2021/03/31 11:38:38;;;;;;;12.40;6.53;;;31.90;23.60;;;23.59;36.14;101056.25;4984302;28;100286;-63
2021/03/31 11:41:50;;;;;;;7.72;6.45;;;31.70;24.00;;;23.34;37.25;101049.94;4983884;28;100082;-62
2021/03/31 11:45:01;;;;;;;8.70;6.25;;;31.50;23.30;;;23.28;38.09;101049.78;4984454;28;99751;-61
2021/03/31 11:48:12;;;;;;;10.50;7.28;;;31.20;23.90;;;23.01;39.63;101047.47;4985361;28;99686;-62
2021/03/31 11:51:23;;;;;;;7.03;5.60;;;30.80;24.00;;;23.26;38.95;101037.41;4983237;28;100016;-63
2021/03/31 11:54:35;;;;;;;8.18;5.97;;;30.50;24.00;;;23.13;38.86;101032.88;4982098;28;100096;-62
2021/03/31 11:57:47;;;;;;;7.93;6.13;;;30.30;24.40;;;23.08;39.15;101030.00;4949048;28;101299;-63
2021/03/31 12:04:32;;;;;;;6.28;4.68;;;29.80;24.50;;;23.56;37.13;101018.47;4963240;28;100126;-61
2021/03/31 12:07:43;;;;;;;7.05;5.43;;;29.80;24.80;;;23.31;36.50;101007.53;4951860;28;99974;-62
2021/03/31 12:10:56;;;;;;;6.93;6.15;;;30.10;24.70;;;23.13;37.22;101007.47;4963089;28;99951;-63
2021/03/31 12:14:07;;;;;;;6.15;4.60;;;30.20;24.10;;;23.25;34.49;101016.63;4964981;28;99492;-62
2021/03/31 12:17:18;;;;;;;8.02;5.05;;;30.10;24.10;;;23.71;34.16;101007.19;4957365;28;99497;-62
2021/03/31 12:20:30;;;;;;;5.15;3.90;;;30.20;24.20;;;23.35;32.40;101008.78;4965648;28;99836;-63
2021/03/31 12:23:41;;;;;;;7.22;4.63;;;30.20;23.20;;;23.40;35.39;100991.69;4963616;28;99920;-62
2021/03/31 12:27:00;;;;;;;8.18;5.15;;;30.00;23.80;;;23.32;34.39;100997.44;4966617;28;100487;-62
2021/03/31 12:30:12;;;;;;;5.53;3.90;;;30.00;24.30;;;23.77;34.07;100993.44;4964498;28;99824;-63
2021/03/31 12:33:23;;;;;;;5.25;4.47;;;30.00;24.10;;;23.68;33.77;100983.03;4960109;28;99430;-63
2021/03/31 12:36:35;;;;;;;5.13;4.40;;;30.10;24.20;;;22.86;33.61;100976.88;4964949;28;99597;-62
2021/03/31 12:39:46;;;;;;;8.60;6.57;;;29.90;23.50;;;22.93;35.31;100974.91;4965465;28;99866;-62
2021/03/31 12:42:59;;;;;;;9.77;5.25;;;29.50;24.00;;;22.93;35.37;100972.19;4964421;28;99776;-63
2021/03/31 12:46:10;;;;;;;6.00;4.43;;;29.10;24.40;;;23.75;34.21;100970.94;4967945;28;98606;-63
2021/03/31 12:49:22;;;;;;;6.95;5.32;;;29.00;24.80;;;23.42;35.12;100965.00;4966506;28;99767;-63
2021/03/31 12:52:39;;;;;;;5.82;5.30;;;29.40;25.00;;;23.90;36.23;100957.75;4946094;28;99557;-63
2021/03/31 12:55:52;;;;;;;6.40;5.60;;;29.70;25.20;;;23.47;33.91;100960.53;4966381;28;99747;-63
2021/03/31 12:59:04;;;;;;;8.15;6.57;;;29.90;24.20;;;23.24;37.29;100950.25;4968227;28;99911;-62
2021/03/31 13:02:15;;;;;;;7.25;5.57;;;29.80;24.20;;;23.13;36.51;100941.97;4965616;28;99656;-62
2021/03/31 13:05:27;;;;;;;6.05;5.30;;;29.40;24.50;;;23.25;37.39;100942.88;4967126;28;100065;-62
2021/03/31 13:08:38;;;;;;;6.22;5.25;;;29.10;24.90;;;23.97;36.83;100933.91;4986023;28;99681;-62
2021/03/31 13:11:49;;;;;;;8.60;5.32;;;29.20;25.50;;;23.84;35.99;100925.03;4983486;28;99714;-63
2021/03/31 13:25:33;;;;;;;9.65;4.70;;;30.30;25.20;;;23.86;34.70;100920.19;4888776;28;97516;-62
2021/03/31 13:32:10;;;;;;;7.53;6.18;;;30.20;24.50;;;23.41;38.28;100895.06;4984993;28;96949;-63
2021/03/31 13:35:26;;;;;;;8.18;6.97;;;29.90;25.00;;;23.37;41.00;100899.31;4966316;28;96255;-62
2021/03/31 13:38:46;;;;;;;8.27;6.70;;;29.70;25.50;;;23.53;41.70;100894.09;4986309;28;99145;-62
2021/03/31 13:41:57;;;;;;;8.38;7.28;;;29.40;26.30;;;22.93;42.01;100893.88;4990159;28;96259;-62
2021/03/31 13:45:08;;;;;;;9.10;7.05;;;29.20;26.50;;;23.47;46.22;100888.69;4986642;28;98971;-62
2021/03/31 13:48:29;;;;;;;10.25;7.38;;;29.00;26.70;;;23.04;42.30;100884.09;4988140;28;99659;-63
2021/03/31 13:51:44;;;;;;;8.05;7.18;;;29.00;26.60;;;22.98;40.15;100876.84;4981479;28;99500;-62
2021/03/31 13:54:57;;;;;;;9.85;7.65;;;28.70;26.00;;;22.87;44.54;100877.56;4986334;28;97966;-63
2021/03/31 14:02:29;;;;;;;11.20;7.47;;;27.90;27.10;;;22.81;49.20;100871.09;4948046;28;99660;-63
2021/03/31 14:05:57;;;;;;;9.77;7.28;;;27.50;27.90;;;22.74;44.52;100866.75;4906034;28;99693;-61
2021/03/31 14:09:17;;;;;;;8.80;7.90;;;27.20;28.40;;;22.64;45.28;100867.22;4930868;28;100091;-62
2021/03/31 14:12:37;;;;;;;10.45;7.10;;;27.00;28.40;;;22.55;46.04;100863.13;4982152;28;100016;-62
2021/03/31 14:26:50;;;;;;;11.70;7.95;;;27.10;29.00;;;23.18;44.29;100839.22;4975186;28;100552;-61
2021/03/31 14:33:45;;;;;;;16.58;8.40;;;27.30;28.90;;;23.48;47.09;100839.31;4962080;28;100181;-61
2021/03/31 14:36:56;;;;;;;11.18;8.13;;;27.40;28.90;;;23.13;46.38;100833.59;4985320;28;101586;-62
2021/03/31 14:40:09;;;;;;;11.25;8.38;;;27.40;28.90;;;23.01;46.42;100829.13;4985188;28;100341;-61
2021/03/31 14:43:21;;;;;;;11.15;9.40;;;27.40;28.70;;;23.17;46.89;100826.63;4984268;28;99862;-60
2021/03/31 14:46:32;;;;;;;16.38;8.75;;;27.40;28.80;;;22.91;44.86;100827.75;4984800;28;100156;-62
2021/03/31 14:49:55;;;;;;;9.65;8.65;;;27.40;28.80;;;22.87;46.96;100818.34;4977735;28;100835;-60
2021/03/31 14:59:50;;;;;;;9.32;7.47;;;27.20;29.30;;;23.16;46.21;100805.88;4985876;28;100382;-62
2021/03/31 15:03:01;;;;;;;24.38;8.02;;;27.20;30.00;;;23.08;45.36;100791.69;4984211;28;99956;-61
2021/03/31 15:06:12;;;;;;;8.57;7.40;;;27.20;29.30;;;23.37;44.99;100790.91;4982189;28;100087;-61
2021/03/31 15:09:24;;;;;;;11.93;7.60;;;27.10;29.10;;;23.23;42.30;100790.25;4974018;28;99793;-61